sensor_id;sensor_type;location;lat;lon;timestamp;P1;durP1;ratioP1;P2;durP2;ratioP2
78555;SDS011;67851;51.354;7.744;2023-11-21T00:02:23;47.95;;;15.68;;
78555;SDS011;67851;51.354;7.744;2023-11-21T00:04:50;47.72;;;14.43;;
78555;SDS011;67851;51.354;7.744;2023-11-21T00:07:18;46.05;;;14.32;;
78555;SDS011;67851;51.354;7.744;2023-11-21T00:09:45;51.60;;;16.33;;
78555;SDS011;67851;51.354;7.744;2023-11-21T00:12:12;47.83;;;17.02;;
78555;SDS011;67851;51.354;7.744;2023-11-21T00:14:40;52.13;;;16.33;;
78555;SDS011;67851;51.354;7.744;2023-11-21T00:17:07;48.65;;;15.05;;
78555;SDS011;67851;51.354;7.744;2023-11-21T00:19:34;31.10;;;12.23;;
78555;SDS011;67851;51.354;7.744;2023-11-21T00:22:01;40.80;;;12.15;;
78555;SDS011;67851;51.354;7.744;2023-11-21T00:24:28;37.67;;;13.00;;
78555;SDS011;67851;51.354;7.744;2023-11-21T00:26:55;42.45;;;13.32;;
78555;SDS011;67851;51.354;7.744;2023-11-21T00:29:22;76.70;;;21.45;;
78555;SDS011;67851;51.354;7.744;2023-11-21T00:31:50;94.72;;;26.55;;
78555;SDS011;67851;51.354;7.744;2023-11-21T00:34:17;86.18;;;22.73;;
78555;SDS011;67851;51.354;7.744;2023-11-21T00:36:44;70.05;;;20.05;;
78555;SDS011;67851;51.354;7.744;2023-11-21T00:39:11;70.63;;;21.15;;
78555;SDS011;67851;51.354;7.744;2023-11-21T00:41:40;61.63;;;17.58;;
78555;SDS011;67851;51.354;7.744;2023-11-21T00:44:08;47.92;;;16.48;;
78555;SDS011;67851;51.354;7.744;2023-11-21T00:46:35;42.70;;;14.50;;
78555;SDS011;67851;51.354;7.744;2023-11-21T00:49:02;47.13;;;15.70;;
78555;SDS011;67851;51.354;7.744;2023-11-21T00:51:30;44.97;;;17.10;;
78555;SDS011;67851;51.354;7.744;2023-11-21T00:54:00;58.10;;;17.42;;
78555;SDS011;67851;51.354;7.744;2023-11-21T00:56:26;55.03;;;17.25;;
78555;SDS011;67851;51.354;7.744;2023-11-21T00:58:54;41.20;;;16.70;;
78555;SDS011;67851;51.354;7.744;2023-11-21T01:01:21;57.97;;;17.65;;
78555;SDS011;67851;51.354;7.744;2023-11-21T01:03:51;57.65;;;17.65;;
78555;SDS011;67851;51.354;7.744;2023-11-21T01:06:18;62.15;;;17.20;;
78555;SDS011;67851;51.354;7.744;2023-11-21T01:08:47;68.03;;;19.70;;
78555;SDS011;67851;51.354;7.744;2023-11-21T01:11:14;46.97;;;16.40;;
78555;SDS011;67851;51.354;7.744;2023-11-21T01:13:42;62.15;;;18.05;;
78555;SDS011;67851;51.354;7.744;2023-11-21T01:16:09;54.33;;;16.30;;
78555;SDS011;67851;51.354;7.744;2023-11-21T01:18:36;60.15;;;17.15;;
78555;SDS011;67851;51.354;7.744;2023-11-21T01:21:03;52.33;;;16.95;;
78555;SDS011;67851;51.354;7.744;2023-11-21T01:23:30;44.88;;;17.90;;
78555;SDS011;67851;51.354;7.744;2023-11-21T01:25:57;54.88;;;16.23;;
78555;SDS011;67851;51.354;7.744;2023-11-21T01:28:25;47.42;;;16.13;;
78555;SDS011;67851;51.354;7.744;2023-11-21T01:30:53;63.92;;;17.70;;
78555;SDS011;67851;51.354;7.744;2023-11-21T01:33:23;45.78;;;16.60;;
78555;SDS011;67851;51.354;7.744;2023-11-21T01:35:52;44.00;;;15.95;;
78555;SDS011;67851;51.354;7.744;2023-11-21T01:38:22;49.63;;;16.10;;
78555;SDS011;67851;51.354;7.744;2023-11-21T01:40:48;46.35;;;15.18;;
78555;SDS011;67851;51.354;7.744;2023-11-21T01:43:15;43.13;;;15.95;;
78555;SDS011;67851;51.354;7.744;2023-11-21T01:45:43;43.17;;;15.13;;
78555;SDS011;67851;51.354;7.744;2023-11-21T01:48:11;51.65;;;15.80;;
78555;SDS011;67851;51.354;7.744;2023-11-21T01:50:39;50.13;;;17.02;;
78555;SDS011;67851;51.354;7.744;2023-11-21T01:53:06;52.88;;;17.42;;
78555;SDS011;67851;51.354;7.744;2023-11-21T01:55:33;54.28;;;17.52;;
78555;SDS011;67851;51.354;7.744;2023-11-21T01:58:00;75.70;;;20.48;;
78555;SDS011;67851;51.354;7.744;2023-11-21T02:00:29;72.47;;;21.80;;
78555;SDS011;67851;51.354;7.744;2023-11-21T02:02:57;72.85;;;20.80;;
78555;SDS011;67851;51.354;7.744;2023-11-21T02:05:26;88.43;;;24.88;;
78555;SDS011;67851;51.354;7.744;2023-11-21T02:07:53;99.22;;;30.05;;
78555;SDS011;67851;51.354;7.744;2023-11-21T02:10:20;109.22;;;27.98;;
78555;SDS011;67851;51.354;7.744;2023-11-21T02:12:51;101.75;;;28.55;;
78555;SDS011;67851;51.354;7.744;2023-11-21T02:15:18;84.50;;;27.08;;
78555;SDS011;67851;51.354;7.744;2023-11-21T02:17:49;94.27;;;25.30;;
78555;SDS011;67851;51.354;7.744;2023-11-21T02:20:20;97.10;;;28.25;;
78555;SDS011;67851;51.354;7.744;2023-11-21T02:25:16;100.25;;;28.73;;
78555;SDS011;67851;51.354;7.744;2023-11-21T02:27:44;88.30;;;26.98;;
78555;SDS011;67851;51.354;7.744;2023-11-21T02:30:16;81.00;;;26.27;;
78555;SDS011;67851;51.354;7.744;2023-11-21T02:32:43;96.63;;;27.98;;
78555;SDS011;67851;51.354;7.744;2023-11-21T02:35:15;94.40;;;27.02;;
78555;SDS011;67851;51.354;7.744;2023-11-21T02:37:42;85.55;;;26.17;;
78555;SDS011;67851;51.354;7.744;2023-11-21T02:40:09;84.68;;;26.75;;
78555;SDS011;67851;51.354;7.744;2023-11-21T02:42:39;86.40;;;26.25;;
78555;SDS011;67851;51.354;7.744;2023-11-21T02:45:07;90.57;;;26.65;;
78555;SDS011;67851;51.354;7.744;2023-11-21T02:47:34;105.85;;;27.52;;
78555;SDS011;67851;51.354;7.744;2023-11-21T02:50:01;82.00;;;26.50;;
78555;SDS011;67851;51.354;7.744;2023-11-21T02:52:27;98.40;;;26.20;;
78555;SDS011;67851;51.354;7.744;2023-11-21T02:54:54;85.00;;;26.13;;
78555;SDS011;67851;51.354;7.744;2023-11-21T02:57:21;95.20;;;26.55;;
78555;SDS011;67851;51.354;7.744;2023-11-21T02:59:47;84.70;;;26.10;;
78555;SDS011;67851;51.354;7.744;2023-11-21T03:02:14;87.88;;;27.60;;
78555;SDS011;67851;51.354;7.744;2023-11-21T03:04:43;93.60;;;27.08;;
78555;SDS011;67851;51.354;7.744;2023-11-21T03:07:10;91.95;;;25.70;;
78555;SDS011;67851;51.354;7.744;2023-11-21T03:09:38;89.15;;;24.77;;
78555;SDS011;67851;51.354;7.744;2023-11-21T03:12:05;94.38;;;25.10;;
78555;SDS011;67851;51.354;7.744;2023-11-21T03:14:32;87.13;;;27.02;;
78555;SDS011;67851;51.354;7.744;2023-11-21T03:16:58;90.47;;;27.38;;
78555;SDS011;67851;51.354;7.744;2023-11-21T03:19:29;99.93;;;29.33;;
78555;SDS011;67851;51.354;7.744;2023-11-21T03:21:56;92.68;;;28.17;;
78555;SDS011;67851;51.354;7.744;2023-11-21T03:24:23;92.18;;;29.52;;
78555;SDS011;67851;51.354;7.744;2023-11-21T03:26:50;106.47;;;31.52;;
78555;SDS011;67851;51.354;7.744;2023-11-21T03:29:17;86.38;;;27.77;;
78555;SDS011;67851;51.354;7.744;2023-11-21T03:31:44;95.45;;;28.60;;
78555;SDS011;67851;51.354;7.744;2023-11-21T03:34:16;95.18;;;27.85;;
78555;SDS011;67851;51.354;7.744;2023-11-21T03:39:21;106.93;;;31.48;;
78555;SDS011;67851;51.354;7.744;2023-11-21T03:41:49;108.70;;;30.05;;
78555;SDS011;67851;51.354;7.744;2023-11-21T03:44:15;93.80;;;29.95;;
78555;SDS011;67851;51.354;7.744;2023-11-21T03:46:42;128.30;;;32.20;;
78555;SDS011;67851;51.354;7.744;2023-11-21T03:49:11;104.60;;;30.95;;
78555;SDS011;67851;51.354;7.744;2023-11-21T03:51:38;119.43;;;33.38;;
78555;SDS011;67851;51.354;7.744;2023-11-21T03:54:05;128.88;;;32.17;;
78555;SDS011;67851;51.354;7.744;2023-11-21T03:56:33;114.72;;;32.42;;
78555;SDS011;67851;51.354;7.744;2023-11-21T03:58:59;103.45;;;31.25;;
78555;SDS011;67851;51.354;7.744;2023-11-21T04:01:28;80.40;;;28.27;;
78555;SDS011;67851;51.354;7.744;2023-11-21T04:03:55;113.97;;;31.40;;
78555;SDS011;67851;51.354;7.744;2023-11-21T04:06:21;128.45;;;33.10;;
78555;SDS011;67851;51.354;7.744;2023-11-21T04:08:48;89.63;;;27.77;;
78555;SDS011;67851;51.354;7.744;2023-11-21T04:11:15;96.03;;;29.40;;
78555;SDS011;67851;51.354;7.744;2023-11-21T04:13:42;84.97;;;27.40;;
78555;SDS011;67851;51.354;7.744;2023-11-21T04:16:09;80.35;;;25.65;;
78555;SDS011;67851;51.354;7.744;2023-11-21T04:18:37;88.80;;;28.52;;
78555;SDS011;67851;51.354;7.744;2023-11-21T04:21:05;80.40;;;26.77;;
78555;SDS011;67851;51.354;7.744;2023-11-21T04:23:32;77.68;;;26.25;;
78555;SDS011;67851;51.354;7.744;2023-11-21T04:26:00;84.07;;;26.42;;
78555;SDS011;67851;51.354;7.744;2023-11-21T04:28:28;75.10;;;23.80;;
78555;SDS011;67851;51.354;7.744;2023-11-21T04:30:55;79.47;;;23.95;;
78555;SDS011;67851;51.354;7.744;2023-11-21T04:33:22;70.85;;;23.50;;
78555;SDS011;67851;51.354;7.744;2023-11-21T04:35:49;79.70;;;27.15;;
78555;SDS011;67851;51.354;7.744;2023-11-21T04:38:18;67.85;;;23.63;;
78555;SDS011;67851;51.354;7.744;2023-11-21T04:40:45;71.03;;;23.48;;
78555;SDS011;67851;51.354;7.744;2023-11-21T04:43:12;70.63;;;25.50;;
78555;SDS011;67851;51.354;7.744;2023-11-21T04:45:40;64.03;;;23.42;;
78555;SDS011;67851;51.354;7.744;2023-11-21T04:48:07;72.30;;;25.05;;
78555;SDS011;67851;51.354;7.744;2023-11-21T04:50:36;61.42;;;25.73;;
78555;SDS011;67851;51.354;7.744;2023-11-21T04:53:03;71.07;;;26.95;;
78555;SDS011;67851;51.354;7.744;2023-11-21T04:55:30;75.03;;;25.63;;
78555;SDS011;67851;51.354;7.744;2023-11-21T04:57:57;65.28;;;25.50;;
78555;SDS011;67851;51.354;7.744;2023-11-21T05:00:24;78.32;;;27.30;;
78555;SDS011;67851;51.354;7.744;2023-11-21T05:02:51;89.38;;;28.15;;
78555;SDS011;67851;51.354;7.744;2023-11-21T05:05:19;84.70;;;27.70;;
78555;SDS011;67851;51.354;7.744;2023-11-21T05:07:46;88.47;;;30.40;;
78555;SDS011;67851;51.354;7.744;2023-11-21T05:10:15;81.85;;;30.13;;
78555;SDS011;67851;51.354;7.744;2023-11-21T05:12:42;82.25;;;29.50;;
78555;SDS011;67851;51.354;7.744;2023-11-21T05:15:09;90.55;;;30.75;;
78555;SDS011;67851;51.354;7.744;2023-11-21T05:17:39;88.38;;;31.38;;
78555;SDS011;67851;51.354;7.744;2023-11-21T05:20:11;95.20;;;33.22;;
78555;SDS011;67851;51.354;7.744;2023-11-21T05:22:42;98.38;;;31.77;;
78555;SDS011;67851;51.354;7.744;2023-11-21T05:25:09;100.38;;;32.22;;
78555;SDS011;67851;51.354;7.744;2023-11-21T05:27:38;109.25;;;32.35;;
78555;SDS011;67851;51.354;7.744;2023-11-21T05:30:05;104.38;;;33.10;;
78555;SDS011;67851;51.354;7.744;2023-11-21T05:32:33;90.32;;;30.42;;
78555;SDS011;67851;51.354;7.744;2023-11-21T05:35:00;99.75;;;33.03;;
78555;SDS011;67851;51.354;7.744;2023-11-21T05:37:27;94.57;;;32.22;;
78555;SDS011;67851;51.354;7.744;2023-11-21T05:39:54;93.65;;;31.08;;
78555;SDS011;67851;51.354;7.744;2023-11-21T05:42:24;84.82;;;30.25;;
78555;SDS011;67851;51.354;7.744;2023-11-21T05:44:51;87.63;;;31.35;;
78555;SDS011;67851;51.354;7.744;2023-11-21T05:47:18;102.80;;;29.33;;
78555;SDS011;67851;51.354;7.744;2023-11-21T05:49:45;82.78;;;27.92;;
78555;SDS011;67851;51.354;7.744;2023-11-21T05:52:18;84.57;;;28.50;;
78555;SDS011;67851;51.354;7.744;2023-11-21T05:54:50;87.72;;;27.98;;
78555;SDS011;67851;51.354;7.744;2023-11-21T05:57:16;85.13;;;27.60;;
78555;SDS011;67851;51.354;7.744;2023-11-21T05:59:44;87.65;;;28.30;;
78555;SDS011;67851;51.354;7.744;2023-11-21T06:02:13;94.20;;;28.48;;
78555;SDS011;67851;51.354;7.744;2023-11-21T06:04:40;82.20;;;27.40;;
78555;SDS011;67851;51.354;7.744;2023-11-21T06:07:08;76.45;;;27.35;;
78555;SDS011;67851;51.354;7.744;2023-11-21T06:09:34;94.20;;;29.38;;
78555;SDS011;67851;51.354;7.744;2023-11-21T06:12:03;98.80;;;27.48;;
78555;SDS011;67851;51.354;7.744;2023-11-21T06:14:30;97.38;;;30.90;;
78555;SDS011;67851;51.354;7.744;2023-11-21T06:17:00;106.03;;;29.35;;
78555;SDS011;67851;51.354;7.744;2023-11-21T06:19:27;101.03;;;32.00;;
78555;SDS011;67851;51.354;7.744;2023-11-21T06:21:53;110.90;;;35.05;;
78555;SDS011;67851;51.354;7.744;2023-11-21T06:24:21;116.65;;;36.28;;
78555;SDS011;67851;51.354;7.744;2023-11-21T06:26:49;124.68;;;36.67;;
78555;SDS011;67851;51.354;7.744;2023-11-21T06:29:16;100.57;;;31.98;;
78555;SDS011;67851;51.354;7.744;2023-11-21T06:31:43;114.05;;;34.05;;
78555;SDS011;67851;51.354;7.744;2023-11-21T06:34:10;121.40;;;34.63;;
78555;SDS011;67851;51.354;7.744;2023-11-21T06:36:37;117.95;;;35.42;;
78555;SDS011;67851;51.354;7.744;2023-11-21T06:39:06;135.85;;;35.90;;
78555;SDS011;67851;51.354;7.744;2023-11-21T06:41:33;143.75;;;35.92;;
78555;SDS011;67851;51.354;7.744;2023-11-21T06:44:01;132.80;;;35.30;;
78555;SDS011;67851;51.354;7.744;2023-11-21T06:46:27;140.15;;;37.45;;
78555;SDS011;67851;51.354;7.744;2023-11-21T06:48:54;135.80;;;37.28;;
78555;SDS011;67851;51.354;7.744;2023-11-21T06:51:22;148.48;;;36.60;;
78555;SDS011;67851;51.354;7.744;2023-11-21T06:53:49;148.40;;;37.83;;
78555;SDS011;67851;51.354;7.744;2023-11-21T06:56:19;138.48;;;36.60;;
78555;SDS011;67851;51.354;7.744;2023-11-21T06:58:46;149.75;;;37.60;;
78555;SDS011;67851;51.354;7.744;2023-11-21T07:01:13;142.23;;;37.20;;
78555;SDS011;67851;51.354;7.744;2023-11-21T07:03:40;151.73;;;37.28;;
78555;SDS011;67851;51.354;7.744;2023-11-21T07:06:08;158.20;;;36.15;;
78555;SDS011;67851;51.354;7.744;2023-11-21T07:08:35;136.23;;;36.45;;
78555;SDS011;67851;51.354;7.744;2023-11-21T07:11:02;143.85;;;37.67;;
78555;SDS011;67851;51.354;7.744;2023-11-21T07:13:30;152.57;;;37.45;;
78555;SDS011;67851;51.354;7.744;2023-11-21T07:15:57;143.43;;;35.97;;
78555;SDS011;67851;51.354;7.744;2023-11-21T07:18:25;127.97;;;35.47;;
78555;SDS011;67851;51.354;7.744;2023-11-21T07:20:53;135.55;;;35.78;;
78555;SDS011;67851;51.354;7.744;2023-11-21T07:23:20;134.20;;;35.13;;
78555;SDS011;67851;51.354;7.744;2023-11-21T07:25:49;134.38;;;36.72;;
78555;SDS011;67851;51.354;7.744;2023-11-21T07:28:16;133.88;;;37.95;;
78555;SDS011;67851;51.354;7.744;2023-11-21T07:30:43;133.98;;;37.72;;
78555;SDS011;67851;51.354;7.744;2023-11-21T07:33:10;137.57;;;35.13;;
78555;SDS011;67851;51.354;7.744;2023-11-21T07:35:37;136.68;;;34.60;;
78555;SDS011;67851;51.354;7.744;2023-11-21T07:38:04;108.47;;;32.88;;
78555;SDS011;67851;51.354;7.744;2023-11-21T07:40:31;102.88;;;32.10;;
78555;SDS011;67851;51.354;7.744;2023-11-21T07:42:58;103.10;;;31.60;;
78555;SDS011;67851;51.354;7.744;2023-11-21T07:45:27;112.75;;;32.03;;
78555;SDS011;67851;51.354;7.744;2023-11-21T07:47:54;95.38;;;30.63;;
78555;SDS011;67851;51.354;7.744;2023-11-21T07:50:22;85.50;;;27.85;;
78555;SDS011;67851;51.354;7.744;2023-11-21T07:52:49;78.28;;;27.15;;
78555;SDS011;67851;51.354;7.744;2023-11-21T07:55:17;93.13;;;29.90;;
78555;SDS011;67851;51.354;7.744;2023-11-21T07:57:44;96.38;;;29.35;;
78555;SDS011;67851;51.354;7.744;2023-11-21T08:00:12;96.20;;;30.20;;
78555;SDS011;67851;51.354;7.744;2023-11-21T08:02:41;94.45;;;32.58;;
78555;SDS011;67851;51.354;7.744;2023-11-21T08:05:09;116.40;;;35.38;;
78555;SDS011;67851;51.354;7.744;2023-11-21T08:07:50;102.30;;;35.25;;
78555;SDS011;67851;51.354;7.744;2023-11-21T08:10:17;134.45;;;36.35;;
78555;SDS011;67851;51.354;7.744;2023-11-21T08:12:44;115.35;;;35.70;;
78555;SDS011;67851;51.354;7.744;2023-11-21T08:15:11;93.30;;;33.85;;
78555;SDS011;67851;51.354;7.744;2023-11-21T08:17:38;97.70;;;32.28;;
78555;SDS011;67851;51.354;7.744;2023-11-21T08:20:06;92.65;;;31.90;;
78555;SDS011;67851;51.354;7.744;2023-11-21T08:22:35;93.50;;;32.33;;
78555;SDS011;67851;51.354;7.744;2023-11-21T08:25:07;88.68;;;28.73;;
78555;SDS011;67851;51.354;7.744;2023-11-21T08:27:38;59.25;;;24.45;;
78555;SDS011;67851;51.354;7.744;2023-11-21T08:30:05;57.88;;;23.45;;
78555;SDS011;67851;51.354;7.744;2023-11-21T08:32:33;57.35;;;23.88;;
78555;SDS011;67851;51.354;7.744;2023-11-21T08:35:00;62.75;;;24.05;;
78555;SDS011;67851;51.354;7.744;2023-11-21T08:37:28;58.28;;;22.10;;
78555;SDS011;67851;51.354;7.744;2023-11-21T08:39:57;67.43;;;25.65;;
78555;SDS011;67851;51.354;7.744;2023-11-21T08:42:26;49.97;;;23.17;;
78555;SDS011;67851;51.354;7.744;2023-11-21T08:44:56;64.32;;;24.95;;
78555;SDS011;67851;51.354;7.744;2023-11-21T08:47:26;65.63;;;27.35;;
78555;SDS011;67851;51.354;7.744;2023-11-21T08:49:53;61.65;;;25.25;;
78555;SDS011;67851;51.354;7.744;2023-11-21T08:52:20;64.35;;;26.83;;
78555;SDS011;67851;51.354;7.744;2023-11-21T08:54:49;67.07;;;27.15;;
78555;SDS011;67851;51.354;7.744;2023-11-21T08:57:23;75.65;;;26.42;;
78555;SDS011;67851;51.354;7.744;2023-11-21T08:59:51;73.88;;;25.33;;
78555;SDS011;67851;51.354;7.744;2023-11-21T09:02:22;63.08;;;25.05;;
78555;SDS011;67851;51.354;7.744;2023-11-21T09:04:49;56.45;;;22.00;;
78555;SDS011;67851;51.354;7.744;2023-11-21T09:07:19;60.25;;;23.10;;
78555;SDS011;67851;51.354;7.744;2023-11-21T09:09:47;54.10;;;20.80;;
78555;SDS011;67851;51.354;7.744;2023-11-21T09:12:14;54.88;;;21.33;;
78555;SDS011;67851;51.354;7.744;2023-11-21T09:14:43;51.05;;;19.23;;
78555;SDS011;67851;51.354;7.744;2023-11-21T09:17:10;54.00;;;21.27;;
78555;SDS011;67851;51.354;7.744;2023-11-21T09:19:38;57.50;;;20.58;;
78555;SDS011;67851;51.354;7.744;2023-11-21T09:22:06;56.95;;;21.80;;
78555;SDS011;67851;51.354;7.744;2023-11-21T09:24:34;58.67;;;21.35;;
78555;SDS011;67851;51.354;7.744;2023-11-21T09:27:03;62.83;;;21.90;;
78555;SDS011;67851;51.354;7.744;2023-11-21T09:29:31;69.70;;;24.45;;
78555;SDS011;67851;51.354;7.744;2023-11-21T09:31:58;73.22;;;26.17;;
78555;SDS011;67851;51.354;7.744;2023-11-21T09:34:28;63.65;;;23.58;;
78555;SDS011;67851;51.354;7.744;2023-11-21T09:36:56;66.75;;;23.50;;
78555;SDS011;67851;51.354;7.744;2023-11-21T09:39:23;65.50;;;22.77;;
78555;SDS011;67851;51.354;7.744;2023-11-21T09:41:51;72.53;;;25.52;;
78555;SDS011;67851;51.354;7.744;2023-11-21T09:47:25;81.10;;;26.92;;
78555;SDS011;67851;51.354;7.744;2023-11-21T09:49:52;85.78;;;27.98;;
78555;SDS011;67851;51.354;7.744;2023-11-21T09:52:25;84.07;;;28.10;;
78555;SDS011;67851;51.354;7.744;2023-11-21T09:54:52;78.45;;;26.80;;
78555;SDS011;67851;51.354;7.744;2023-11-21T09:57:20;79.60;;;26.52;;
78555;SDS011;67851;51.354;7.744;2023-11-21T09:59:53;73.47;;;26.95;;
78555;SDS011;67851;51.354;7.744;2023-11-21T10:02:26;80.60;;;25.60;;
78555;SDS011;67851;51.354;7.744;2023-11-21T10:04:58;74.45;;;27.50;;
78555;SDS011;67851;51.354;7.744;2023-11-21T10:07:27;92.93;;;28.98;;
78555;SDS011;67851;51.354;7.744;2023-11-21T10:09:55;92.22;;;30.30;;
78555;SDS011;67851;51.354;7.744;2023-11-21T10:12:22;114.00;;;32.35;;
78555;SDS011;67851;51.354;7.744;2023-11-21T10:14:51;131.55;;;34.67;;
78555;SDS011;67851;51.354;7.744;2023-11-21T10:17:19;134.90;;;35.88;;
78555;SDS011;67851;51.354;7.744;2023-11-21T10:19:47;116.78;;;34.72;;
78555;SDS011;67851;51.354;7.744;2023-11-21T10:22:15;128.95;;;34.40;;
78555;SDS011;67851;51.354;7.744;2023-11-21T10:24:42;144.63;;;36.67;;
78555;SDS011;67851;51.354;7.744;2023-11-21T10:27:19;122.65;;;34.15;;
78555;SDS011;67851;51.354;7.744;2023-11-21T10:29:47;115.93;;;36.80;;
78555;SDS011;67851;51.354;7.744;2023-11-21T10:32:13;95.07;;;29.30;;
78555;SDS011;67851;51.354;7.744;2023-11-21T10:34:40;93.35;;;30.70;;
78555;SDS011;67851;51.354;7.744;2023-11-21T10:37:11;94.93;;;30.25;;
78555;SDS011;67851;51.354;7.744;2023-11-21T10:39:38;108.35;;;30.27;;
78555;SDS011;67851;51.354;7.744;2023-11-21T10:42:07;90.03;;;27.63;;
78555;SDS011;67851;51.354;7.744;2023-11-21T10:44:34;94.65;;;29.25;;
78555;SDS011;67851;51.354;7.744;2023-11-21T10:47:01;92.10;;;27.65;;
78555;SDS011;67851;51.354;7.744;2023-11-21T10:49:29;96.15;;;28.95;;
78555;SDS011;67851;51.354;7.744;2023-11-21T10:51:56;84.30;;;27.30;;
78555;SDS011;67851;51.354;7.744;2023-11-21T10:54:24;94.07;;;27.13;;
78555;SDS011;67851;51.354;7.744;2023-11-21T10:56:58;79.65;;;26.33;;
78555;SDS011;67851;51.354;7.744;2023-11-21T10:59:30;94.28;;;29.17;;
78555;SDS011;67851;51.354;7.744;2023-11-21T11:04:29;63.90;;;20.80;;
78555;SDS011;67851;51.354;7.744;2023-11-21T11:07:01;72.13;;;22.92;;
78555;SDS011;67851;51.354;7.744;2023-11-21T11:09:31;95.97;;;26.52;;
78555;SDS011;67851;51.354;7.744;2023-11-21T11:12:02;70.63;;;21.67;;
78555;SDS011;67851;51.354;7.744;2023-11-21T11:14:31;61.33;;;17.85;;
78555;SDS011;67851;51.354;7.744;2023-11-21T11:16:59;55.72;;;16.92;;
78555;SDS011;67851;51.354;7.744;2023-11-21T11:19:31;51.47;;;14.93;;
78555;SDS011;67851;51.354;7.744;2023-11-21T11:25:01;46.83;;;13.75;;
78555;SDS011;67851;51.354;7.744;2023-11-21T11:27:37;41.15;;;12.57;;
78555;SDS011;67851;51.354;7.744;2023-11-21T11:33:10;48.85;;;17.75;;
78555;SDS011;67851;51.354;7.744;2023-11-21T11:38:33;46.75;;;14.45;;
78555;SDS011;67851;51.354;7.744;2023-11-21T11:41:03;59.92;;;17.50;;
78555;SDS011;67851;51.354;7.744;2023-11-21T11:43:30;63.65;;;18.50;;
78555;SDS011;67851;51.354;7.744;2023-11-21T11:46:11;72.07;;;19.48;;
78555;SDS011;67851;51.354;7.744;2023-11-21T11:48:41;71.75;;;18.85;;
78555;SDS011;67851;51.354;7.744;2023-11-21T11:51:12;74.40;;;21.63;;
78555;SDS011;67851;51.354;7.744;2023-11-21T11:53:48;75.13;;;22.30;;
78555;SDS011;67851;51.354;7.744;2023-11-21T11:59:03;108.45;;;30.48;;
78555;SDS011;67851;51.354;7.744;2023-11-21T12:01:31;133.27;;;31.42;;
78555;SDS011;67851;51.354;7.744;2023-11-21T12:06:53;172.57;;;36.47;;
78555;SDS011;67851;51.354;7.744;2023-11-21T12:09:21;134.77;;;33.85;;
78555;SDS011;67851;51.354;7.744;2023-11-21T12:11:49;137.50;;;38.47;;
78555;SDS011;67851;51.354;7.744;2023-11-21T12:14:17;158.65;;;37.20;;
78555;SDS011;67851;51.354;7.744;2023-11-21T12:16:49;164.20;;;36.33;;
78555;SDS011;67851;51.354;7.744;2023-11-21T12:19:16;208.60;;;40.60;;
78555;SDS011;67851;51.354;7.744;2023-11-21T12:21:43;168.50;;;36.75;;
78555;SDS011;67851;51.354;7.744;2023-11-21T12:24:10;185.48;;;39.17;;
78555;SDS011;67851;51.354;7.744;2023-11-21T12:26:40;99.88;;;28.30;;
78555;SDS011;67851;51.354;7.744;2023-11-21T12:29:08;154.43;;;34.28;;
78555;SDS011;67851;51.354;7.744;2023-11-21T12:31:34;106.45;;;29.17;;
78555;SDS011;67851;51.354;7.744;2023-11-21T12:34:04;151.07;;;34.70;;
78555;SDS011;67851;51.354;7.744;2023-11-21T12:36:31;179.77;;;35.95;;
78555;SDS011;67851;51.354;7.744;2023-11-21T12:38:58;165.15;;;33.78;;
78555;SDS011;67851;51.354;7.744;2023-11-21T12:41:25;141.85;;;30.23;;
78555;SDS011;67851;51.354;7.744;2023-11-21T12:43:54;192.10;;;35.42;;
78555;SDS011;67851;51.354;7.744;2023-11-21T12:46:21;198.63;;;34.20;;
78555;SDS011;67851;51.354;7.744;2023-11-21T12:48:48;233.93;;;35.58;;
78555;SDS011;67851;51.354;7.744;2023-11-21T12:51:16;216.43;;;33.75;;
78555;SDS011;67851;51.354;7.744;2023-11-21T12:53:45;192.20;;;33.45;;
78555;SDS011;67851;51.354;7.744;2023-11-21T12:56:13;143.77;;;30.52;;
78555;SDS011;67851;51.354;7.744;2023-11-21T12:58:44;148.68;;;28.25;;
78555;SDS011;67851;51.354;7.744;2023-11-21T13:01:17;68.68;;;20.55;;
78555;SDS011;67851;51.354;7.744;2023-11-21T13:03:50;79.95;;;20.73;;
78555;SDS011;67851;51.354;7.744;2023-11-21T13:06:18;97.68;;;22.52;;
78555;SDS011;67851;51.354;7.744;2023-11-21T13:08:46;217.68;;;27.45;;
78555;SDS011;67851;51.354;7.744;2023-11-21T13:11:12;143.77;;;23.05;;
78555;SDS011;67851;51.354;7.744;2023-11-21T13:13:41;250.80;;;45.03;;
78555;SDS011;67851;51.354;7.744;2023-11-21T13:16:12;619.00;;;40.80;;
78555;SDS011;67851;51.354;7.744;2023-11-21T13:18:39;616.42;;;36.92;;
78555;SDS011;67851;51.354;7.744;2023-11-21T13:21:08;631.88;;;36.20;;
78555;SDS011;67851;51.354;7.744;2023-11-21T13:23:38;647.10;;;36.25;;
78555;SDS011;67851;51.354;7.744;2023-11-21T13:26:05;424.55;;;23.92;;
78555;SDS011;67851;51.354;7.744;2023-11-21T13:28:34;688.72;;;33.70;;
78555;SDS011;67851;51.354;7.744;2023-11-21T13:31:03;707.38;;;37.80;;
78555;SDS011;67851;51.354;7.744;2023-11-21T13:33:49;428.48;;;22.85;;
78555;SDS011;67851;51.354;7.744;2023-11-21T13:36:23;329.90;;;25.20;;
78555;SDS011;67851;51.354;7.744;2023-11-21T13:38:51;446.75;;;28.20;;
78555;SDS011;67851;51.354;7.744;2023-11-21T13:41:19;653.45;;;31.77;;
78555;SDS011;67851;51.354;7.744;2023-11-21T13:43:46;727.70;;;35.70;;
78555;SDS011;67851;51.354;7.744;2023-11-21T13:46:20;702.80;;;36.95;;
78555;SDS011;67851;51.354;7.744;2023-11-21T13:48:49;627.22;;;36.55;;
78555;SDS011;67851;51.354;7.744;2023-11-21T13:51:23;730.45;;;36.65;;
78555;SDS011;67851;51.354;7.744;2023-11-21T13:54:11;1129.25;;;47.08;;
78555;SDS011;67851;51.354;7.744;2023-11-21T13:57:08;833.33;;;41.63;;
78555;SDS011;67851;51.354;7.744;2023-11-21T13:59:36;1004.28;;;47.88;;
78555;SDS011;67851;51.354;7.744;2023-11-21T14:02:03;472.88;;;26.98;;
78555;SDS011;67851;51.354;7.744;2023-11-21T14:04:46;666.75;;;34.50;;
78555;SDS011;67851;51.354;7.744;2023-11-21T14:07:25;837.40;;;37.25;;
78555;SDS011;67851;51.354;7.744;2023-11-21T14:10:12;596.13;;;32.20;;
78555;SDS011;67851;51.354;7.744;2023-11-21T14:12:41;660.97;;;38.42;;
78555;SDS011;67851;51.354;7.744;2023-11-21T14:15:09;951.03;;;39.80;;
78555;SDS011;67851;51.354;7.744;2023-11-21T14:17:38;712.90;;;35.08;;
78555;SDS011;67851;51.354;7.744;2023-11-21T14:20:08;1180.25;;;46.42;;
78555;SDS011;67851;51.354;7.744;2023-11-21T14:22:43;464.95;;;33.97;;
78555;SDS011;67851;51.354;7.744;2023-11-21T14:25:11;699.13;;;39.95;;
78555;SDS011;67851;51.354;7.744;2023-11-21T14:27:40;1005.35;;;41.47;;
78555;SDS011;67851;51.354;7.744;2023-11-21T14:30:07;698.28;;;30.50;;
78555;SDS011;67851;51.354;7.744;2023-11-21T14:32:35;772.00;;;34.85;;
78555;SDS011;67851;51.354;7.744;2023-11-21T14:35:05;508.10;;;32.30;;
78555;SDS011;67851;51.354;7.744;2023-11-21T14:37:36;472.42;;;28.88;;
78555;SDS011;67851;51.354;7.744;2023-11-21T14:40:04;545.13;;;31.75;;
78555;SDS011;67851;51.354;7.744;2023-11-21T14:42:37;357.17;;;25.33;;
78555;SDS011;67851;51.354;7.744;2023-11-21T14:45:06;720.22;;;33.78;;
78555;SDS011;67851;51.354;7.744;2023-11-21T14:47:35;766.13;;;36.92;;
78555;SDS011;67851;51.354;7.744;2023-11-21T14:50:10;638.47;;;29.60;;